Time;durP1;ratioP1;P1;durP2;ratioP2;P2;SDS_P1;SDS_P2;PMS_P1;PMS_P2;Temp;Humidity;BMP_temperature;BMP_pressure;BME280_temperature;BME280_humidity;BME280_pressure;Samples;Min_cycle;Max_cycle;Signal;HPM_P1;HPM_P2
2022/11/07 00:01:55;;;;;;;;;;;8.10;99.90;;;;;;5022938;28;19932;-91
2022/11/07 00:04:21;;;;;;;;;;;8.10;99.90;;;;;;5023039;28;19975;-91
2022/11/07 00:06:48;;;;;;;;;;;8.10;99.90;;;;;;5028734;28;20028;-92
2022/11/07 00:09:26;;;;;;;;;;;8.10;99.90;;;;;;5026008;28;19979;-92
2022/11/07 00:11:52;;;;;;;;;;;8.10;99.90;;;;;;5020692;28;19925;-92
2022/11/07 00:14:20;;;;;;;;;;;8.10;99.90;;;;;;5024040;28;19941;-92
2022/11/07 00:16:48;;;;;;;;;;;8.10;99.90;;;;;;5039907;28;19925;-91
2022/11/07 00:19:15;;;;;;;;;;;8.10;99.90;;;;;;5020829;28;19960;-92
2022/11/07 00:21:42;;;;;;;;;;;8.10;99.90;;;;;;5024805;28;20409;-93
2022/11/07 00:24:09;;;;;;;;;;;8.10;99.90;;;;;;5013613;28;20004;-92
2022/11/07 00:26:38;;;;;;;;;;;8.10;99.90;;;;;;5022909;28;20060;-93
2022/11/07 00:29:05;;;;;;;;;;;8.10;99.90;;;;;;5016808;28;20019;-92
2022/11/07 00:31:32;;;;;;;;;;;8.10;99.90;;;;;;5025476;28;20052;-91
2022/11/07 00:33:59;;;;;;;;;;;8.10;99.90;;;;;;5026980;28;19925;-92
2022/11/07 00:36:26;;;;;;;;;;;8.10;99.90;;;;;;5021418;28;19934;-91
2022/11/07 00:38:54;;;;;;;;;;;8.10;99.90;;;;;;5024392;28;19980;-92
2022/11/07 00:41:21;;;;;;;;;;;8.10;99.90;;;;;;5028999;28;19932;-92
2022/11/07 00:43:49;;;;;;;;;;;8.20;99.90;;;;;;5025992;28;19925;-93
2022/11/07 00:46:19;;;;;;;;;;;8.20;99.90;;;;;;5020745;28;20033;-92
2022/11/07 00:48:46;;;;;;;;;;;8.10;99.90;;;;;;5026627;28;20451;-91
2022/11/07 00:51:14;;;;;;;;;;;8.10;99.90;;;;;;5027128;28;19929;-93
2022/11/07 00:53:41;;;;;;;;;;;8.10;99.90;;;;;;5022637;28;19932;-94
2022/11/07 00:56:09;;;;;;;;;;;8.10;99.90;;;;;;5023681;28;21064;-92
2022/11/07 00:58:36;;;;;;;;;;;8.10;99.90;;;;;;5023132;28;19925;-92
2022/11/07 01:01:07;;;;;;;;;;;8.10;99.90;;;;;;5018355;28;19933;-93
2022/11/07 01:06:20;;;;;;;;;;;8.20;99.90;;;;;;5021944;28;19948;-92
2022/11/07 01:08:47;;;;;;;;;;;8.10;99.90;;;;;;5039379;28;21698;-94
2022/11/07 01:11:14;;;;;;;;;;;8.10;99.90;;;;;;5018421;28;19940;-92
2022/11/07 01:13:41;;;;;;;;;;;8.20;99.90;;;;;;5022942;28;20015;-93
2022/11/07 01:16:09;;;;;;;;;;;8.10;99.90;;;;;;5025480;28;19932;-91
2022/11/07 01:18:37;;;;;;;;;;;8.10;99.90;;;;;;5017959;28;19925;-92
2022/11/07 01:21:04;;;;;;;;;;;8.10;99.90;;;;;;5020210;28;20376;-93
2022/11/07 01:23:31;;;;;;;;;;;8.10;99.90;;;;;;5024430;28;20000;-93
2022/11/07 01:25:58;;;;;;;;;;;8.10;99.90;;;;;;5037925;28;20415;-92
2022/11/07 01:28:27;;;;;;;;;;;8.10;99.90;;;;;;5024707;28;19933;-92
2022/11/07 01:30:54;;;;;;;;;;;8.10;99.90;;;;;;5022470;28;20036;-93
2022/11/07 01:33:21;;;;;;;;;;;8.10;99.90;;;;;;5023860;28;20012;-93
2022/11/07 01:35:49;;;;;;;;;;;8.10;99.90;;;;;;5029830;28;19925;-93
2022/11/07 01:38:16;;;;;;;;;;;8.10;99.90;;;;;;5022758;28;19937;-92
2022/11/07 01:43:40;;;;;;;;;;;8.10;99.90;;;;;;5022167;28;19952;-93
2022/11/07 01:46:07;;;;;;;;;;;8.10;99.90;;;;;;5020698;28;19929;-92
2022/11/07 01:48:34;;;;;;;;;;;8.10;99.90;;;;;;5026451;28;20095;-93
2022/11/07 01:51:02;;;;;;;;;;;8.10;99.90;;;;;;5024490;28;19925;-93
2022/11/07 01:53:29;;;;;;;;;;;8.10;99.90;;;;;;5021024;28;19932;-91
2022/11/07 01:55:56;;;;;;;;;;;8.10;99.90;;;;;;5027424;28;19925;-91
2022/11/07 01:58:23;;;;;;;;;;;8.10;99.90;;;;;;5019651;28;20363;-92
2022/11/07 02:00:50;;;;;;;;;;;8.10;99.90;;;;;;5023611;28;19980;-91
2022/11/07 02:03:17;;;;;;;;;;;8.10;99.90;;;;;;5027112;28;19939;-92
2022/11/07 02:05:46;;;;;;;;;;;8.10;99.90;;;;;;5024671;28;19970;-92
2022/11/07 02:08:15;;;;;;;;;;;8.10;99.90;;;;;;5024383;28;19987;-93
2022/11/07 02:10:43;;;;;;;;;;;8.10;99.90;;;;;;5022504;28;19947;-92
2022/11/07 02:13:13;;;;;;;;;;;8.10;99.90;;;;;;5021357;28;19925;-92
2022/11/07 02:15:40;;;;;;;;;;;8.10;99.90;;;;;;5023059;28;19933;-92
2022/11/07 02:18:07;;;;;;;;;;;8.10;99.90;;;;;;5020677;28;20024;-93
2022/11/07 02:20:34;;;;;;;;;;;8.10;99.90;;;;;;5021715;28;20028;-91
2022/11/07 02:23:05;;;;;;;;;;;8.10;99.90;;;;;;5019260;28;20059;-92
2022/11/07 02:25:34;;;;;;;;;;;8.00;99.90;;;;;;5022902;28;20015;-94
2022/11/07 02:28:03;;;;;;;;;;;8.00;99.90;;;;;;5018943;28;19965;-92
2022/11/07 02:30:33;;;;;;;;;;;8.10;99.90;;;;;;5022009;28;19954;-91
2022/11/07 02:33:00;;;;;;;;;;;8.10;99.90;;;;;;5024641;28;20179;-92
2022/11/07 02:35:38;;;;;;;;;;;8.00;99.90;;;;;;5023847;28;19914;-91
2022/11/07 02:38:06;;;;;;;;;;;8.00;99.90;;;;;;5027641;28;19983;-92
2022/11/07 02:40:35;;;;;;;;;;;8.00;99.90;;;;;;5022694;28;19940;-93
2022/11/07 02:43:03;;;;;;;;;;;8.00;99.90;;;;;;5022597;28;20297;-93
2022/11/07 02:45:32;;;;;;;;;;;8.10;99.90;;;;;;5021220;28;20144;-92
2022/11/07 02:47:59;;;;;;;;;;;8.00;99.90;;;;;;5026820;28;19933;-93
2022/11/07 02:50:26;;;;;;;;;;;8.10;99.90;;;;;;5024436;28;19967;-92
2022/11/07 02:52:53;;;;;;;;;;;8.00;99.90;;;;;;5023899;28;19932;-92
2022/11/07 02:55:20;;;;;;;;;;;8.10;99.90;;;;;;5027023;28;19929;-92
2022/11/07 02:57:49;;;;;;;;;;;8.00;99.90;;;;;;5021686;28;19982;-92
2022/11/07 03:00:16;;;;;;;;;;;8.00;99.90;;;;;;5041020;28;20189;-91
2022/11/07 03:02:45;;;;;;;;;;;8.00;99.90;;;;;;5025787;28;19975;-93
2022/11/07 03:05:12;;;;;;;;;;;8.00;99.90;;;;;;5025972;28;19948;-92
2022/11/07 03:07:39;;;;;;;;;;;8.00;99.90;;;;;;5023689;28;19930;-92
2022/11/07 03:10:07;;;;;;;;;;;8.00;99.90;;;;;;5019064;28;19925;-92
2022/11/07 03:12:34;;;;;;;;;;;8.00;99.90;;;;;;5022708;28;20421;-93
2022/11/07 03:15:03;;;;;;;;;;;8.00;99.90;;;;;;5023330;28;19933;-91
2022/11/07 03:17:30;;;;;;;;;;;7.90;99.90;;;;;;5039872;28;20358;-92
2022/11/07 03:19:56;;;;;;;;;;;8.00;99.90;;;;;;5022002;28;19980;-94
2022/11/07 03:22:23;;;;;;;;;;;7.90;99.90;;;;;;5037684;28;19955;-92
2022/11/07 03:24:51;;;;;;;;;;;8.00;99.90;;;;;;5034943;28;19932;-93
2022/11/07 03:27:18;;;;;;;;;;;7.90;99.90;;;;;;5028771;28;19925;-91
2022/11/07 03:29:45;;;;;;;;;;;8.00;99.90;;;;;;5025036;28;19926;-93
2022/11/07 03:32:13;;;;;;;;;;;7.90;99.90;;;;;;5023480;28;20062;-92
2022/11/07 03:34:40;;;;;;;;;;;7.90;99.90;;;;;;5048092;28;20376;-92
2022/11/07 03:37:07;;;;;;;;;;;7.90;99.90;;;;;;5019127;28;19925;-93
2022/11/07 03:39:33;;;;;;;;;;;7.90;99.90;;;;;;5023317;28;20376;-92
2022/11/07 03:42:00;;;;;;;;;;;8.00;99.90;;;;;;5022902;28;20318;-92
2022/11/07 03:44:27;;;;;;;;;;;7.90;99.90;;;;;;5034435;28;19985;-92
2022/11/07 03:46:54;;;;;;;;;;;7.90;99.90;;;;;;5025782;28;19991;-93
2022/11/07 03:49:22;;;;;;;;;;;7.90;99.90;;;;;;5029597;28;19963;-93
2022/11/07 03:51:49;;;;;;;;;;;7.90;99.90;;;;;;5045531;28;20310;-93
2022/11/07 03:54:16;;;;;;;;;;;7.90;99.90;;;;;;5046412;28;20458;-92
2022/11/07 03:56:43;;;;;;;;;;;7.90;99.90;;;;;;5026542;28;19929;-95
2022/11/07 03:59:10;;;;;;;;;;;7.90;99.90;;;;;;5024631;28;19953;-94
2022/11/07 04:01:37;;;;;;;;;;;7.90;99.90;;;;;;5044812;28;19948;-92
2022/11/07 04:04:04;;;;;;;;;;;7.90;99.90;;;;;;5025297;28;19929;-94
2022/11/07 04:06:32;;;;;;;;;;;7.90;99.90;;;;;;5025568;28;19929;-90
2022/11/07 04:08:59;;;;;;;;;;;7.90;99.90;;;;;;5038064;28;19988;-93
2022/11/07 04:19:39;;;;;;;;;;;7.90;99.90;;;;;;5045690;28;19928;-93
2022/11/07 04:22:07;;;;;;;;;;;7.90;99.90;;;;;;5041739;28;19941;-93
2022/11/07 04:24:34;;;;;;;;;;;7.90;99.90;;;;;;5037620;28;19969;-92
2022/11/07 04:29:46;;;;;;;;;;;7.80;99.90;;;;;;5057360;28;19921;-93
2022/11/07 04:32:12;;;;;;;;;;;7.80;99.90;;;;;;5024532;28;19925;-93
2022/11/07 04:34:39;;;;;;;;;;;7.80;99.90;;;;;;5048580;28;19929;-93
2022/11/07 04:37:08;;;;;;;;;;;7.90;99.90;;;;;;5024171;28;20144;-92
2022/11/07 04:39:35;;;;;;;;;;;7.80;99.90;;;;;;5024780;28;20027;-92
2022/11/07 04:42:02;;;;;;;;;;;7.80;99.90;;;;;;5026780;28;19972;-92
2022/11/07 04:44:28;;;;;;;;;;;7.80;99.90;;;;;;5044324;28;19991;-92
2022/11/07 04:46:55;;;;;;;;;;;7.80;99.90;;;;;;5042760;28;20026;-93
2022/11/07 04:49:22;;;;;;;;;;;7.90;99.90;;;;;;5025057;28;19991;-91
2022/11/07 04:51:49;;;;;;;;;;;7.80;99.90;;;;;;5090905;22;20314;-73
2022/11/07 04:54:17;;;;;;;;;;;7.80;99.90;;;;;;5045267;28;20007;-74
2022/11/07 04:56:44;;;;;;;;;;;7.80;99.90;;;;;;5045082;28;20454;-74
2022/11/07 04:59:11;;;;;;;;;;;7.80;99.90;;;;;;5046781;28;20030;-74
2022/11/07 05:01:38;;;;;;;;;;;7.90;99.90;;;;;;5032777;28;19925;-74
2022/11/07 05:04:05;;;;;;;;;;;7.80;99.90;;;;;;5014693;28;20117;-74
2022/11/07 05:06:34;;;;;;;;;;;7.80;99.90;;;;;;5023315;28;20422;-74
2022/11/07 05:09:01;;;;;;;;;;;7.80;99.90;;;;;;5022634;28;19936;-74
2022/11/07 05:11:29;;;;;;;;;;;7.80;99.90;;;;;;5016060;28;19933;-74
2022/11/07 05:13:56;;;;;;;;;;;7.80;99.90;;;;;;5023366;28;20006;-74
2022/11/07 05:16:23;;;;;;;;;;;7.80;99.90;;;;;;5022855;28;19933;-74
2022/11/07 05:18:50;;;;;;;;;;;7.80;99.90;;;;;;5020415;28;19933;-74
2022/11/07 05:21:17;;;;;;;;;;;7.70;99.90;;;;;;5025922;28;20441;-74
2022/11/07 05:23:44;;;;;;;;;;;7.80;99.90;;;;;;5019532;28;19971;-77
2022/11/07 05:26:10;;;;;;;;;;;7.80;99.90;;;;;;5018945;28;20891;-75
2022/11/07 05:28:38;;;;;;;;;;;7.80;99.90;;;;;;5031150;28;20012;-75
2022/11/07 05:31:06;;;;;;;;;;;7.80;99.90;;;;;;5021458;28;19929;-75
2022/11/07 05:33:33;;;;;;;;;;;7.80;99.90;;;;;;5023950;28;20015;-75
2022/11/07 05:36:10;;;;;;;;;;;7.80;99.90;;;;;;5019041;28;19972;-78
2022/11/07 05:38:37;;;;;;;;;;;7.80;99.90;;;;;;5021953;28;19976;-76
2022/11/07 05:41:04;;;;;;;;;;;7.80;99.90;;;;;;5017421;28;19964;-75
2022/11/07 05:43:31;;;;;;;;;;;7.80;99.90;;;;;;5024141;28;20016;-75
2022/11/07 05:46:00;;;;;;;;;;;7.80;99.90;;;;;;5015836;28;20209;-75
2022/11/07 05:48:27;;;;;;;;;;;7.80;99.90;;;;;;5021357;28;19925;-75
2022/11/07 05:50:54;;;;;;;;;;;7.80;99.90;;;;;;5038268;28;19942;-75
2022/11/07 05:53:21;;;;;;;;;;;7.70;99.90;;;;;;5023496;28;19933;-78
2022/11/07 05:55:48;;;;;;;;;;;7.70;99.90;;;;;;5019514;28;19925;-83
2022/11/07 05:58:15;;;;;;;;;;;7.80;99.90;;;;;;5019028;28;19937;-77
2022/11/07 06:00:41;;;;;;;;;;;7.70;99.90;;;;;;5021278;28;20383;-75
2022/11/07 06:03:10;;;;;;;;;;;7.70;99.90;;;;;;5018867;28;19975;-74
2022/11/07 06:05:37;;;;;;;;;;;7.70;99.90;;;;;;5020782;28;19929;-74
2022/11/07 06:08:04;;;;;;;;;;;7.80;99.90;;;;;;5037082;28;20329;-75
2022/11/07 06:10:31;;;;;;;;;;;7.80;99.90;;;;;;5016584;28;19944;-74
2022/11/07 06:12:59;;;;;;;;;;;7.70;99.90;;;;;;5016202;28;19968;-74
2022/11/07 06:15:26;;;;;;;;;;;7.70;99.90;;;;;;5021465;28;19929;-76
2022/11/07 06:17:55;;;;;;;;;;;7.70;99.90;;;;;;5022114;28;19925;-75
2022/11/07 06:20:23;;;;;;;;;;;7.70;99.90;;;;;;5034621;28;19934;-74
2022/11/07 06:22:50;;;;;;;;;;;7.80;99.90;;;;;;5025175;28;19932;-75
2022/11/07 06:25:17;;;;;;;;;;;7.80;99.90;;;;;;5012809;28;19941;-75
2022/11/07 06:27:43;;;;;;;;;;;7.80;99.90;;;;;;5019126;28;19925;-75
2022/11/07 06:30:13;;;;;;;;;;;7.70;99.90;;;;;;5010852;28;19929;-74
2022/11/07 06:32:43;;;;;;;;;;;7.80;99.90;;;;;;5017220;28;20426;-74
2022/11/07 06:35:09;;;;;;;;;;;7.80;99.90;;;;;;5023807;28;20304;-74
2022/11/07 06:37:38;;;;;;;;;;;7.70;99.90;;;;;;5021703;28;20589;-74
2022/11/07 06:40:05;;;;;;;;;;;7.70;99.90;;;;;;5018498;28;20031;-74
2022/11/07 06:42:32;;;;;;;;;;;7.70;99.90;;;;;;5023623;28;20402;-75
2022/11/07 06:44:59;;;;;;;;;;;7.80;99.90;;;;;;5021088;28;20326;-75
2022/11/07 06:47:25;;;;;;;;;;;7.80;99.90;;;;;;5018989;28;20024;-74
2022/11/07 06:49:52;;;;;;;;;;;7.70;99.90;;;;;;5026161;28;19929;-75
2022/11/07 06:52:19;;;;;;;;;;;7.70;99.90;;;;;;5017884;28;19926;-74
2022/11/07 06:54:47;;;;;;;;;;;7.70;99.90;;;;;;5018578;28;19983;-74
2022/11/07 06:57:14;;;;;;;;;;;7.70;99.90;;;;;;5020796;28;19929;-74
2022/11/07 06:59:41;;;;;;;;;;;7.70;99.90;;;;;;5031288;28;19975;-74
2022/11/07 07:02:10;;;;;;;;;;;7.70;99.90;;;;;;5015713;28;19933;-74
2022/11/07 07:04:37;;;;;;;;;;;7.70;99.90;;;;;;5018918;28;19982;-74
2022/11/07 07:07:04;;;;;;;;;;;7.70;99.90;;;;;;4997567;28;20400;-72
2022/11/07 07:09:32;;;;;;;;;;;7.70;99.90;;;;;;5013495;28;20024;-76
2022/11/07 07:12:00;;;;;;;;;;;7.70;99.90;;;;;;5008107;28;19933;-71
2022/11/07 07:14:26;;;;;;;;;;;7.70;99.90;;;;;;5018024;28;19931;-70
2022/11/07 07:16:53;;;;;;;;;;;7.70;99.90;;;;;;5012382;28;20820;-71
2022/11/07 07:19:20;;;;;;;;;;;7.70;99.90;;;;;;5015539;28;20345;-74
2022/11/07 07:21:47;;;;;;;;;;;7.80;99.90;;;;;;5008031;28;19929;-73
2022/11/07 07:24:14;;;;;;;;;;;7.70;99.90;;;;;;5015952;28;20037;-73
2022/11/07 07:26:40;;;;;;;;;;;7.70;99.90;;;;;;5017417;28;19933;-71
2022/11/07 07:29:08;;;;;;;;;;;7.70;99.90;;;;;;5017299;28;20026;-73
2022/11/07 07:31:35;;;;;;;;;;;7.70;99.90;;;;;;5014859;28;20453;-74
2022/11/07 07:34:02;;;;;;;;;;;7.70;99.90;;;;;;5019898;28;20007;-71
2022/11/07 07:36:29;;;;;;;;;;;7.70;99.90;;;;;;5015939;28;19925;-71
2022/11/07 07:38:56;;;;;;;;;;;7.70;99.90;;;;;;5017119;28;19933;-70
2022/11/07 07:41:23;;;;;;;;;;;7.70;99.90;;;;;;5015357;28;19929;-76
2022/11/07 07:43:49;;;;;;;;;;;7.80;99.90;;;;;;5019067;28;20032;-71
2022/11/07 07:46:19;;;;;;;;;;;7.80;99.90;;;;;;5019092;28;19925;-76
2022/11/07 07:48:46;;;;;;;;;;;7.70;99.90;;;;;;5019125;28;20421;-73
2022/11/07 07:51:13;;;;;;;;;;;7.70;99.90;;;;;;5015058;28;19968;-71
2022/11/07 07:53:39;;;;;;;;;;;7.70;99.90;;;;;;5017667;28;20007;-71
2022/11/07 07:56:07;;;;;;;;;;;7.70;99.90;;;;;;5020236;28;19972;-71
2022/11/07 07:58:34;;;;;;;;;;;7.80;99.90;;;;;;5015464;28;20024;-71
2022/11/07 08:01:00;;;;;;;;;;;7.80;99.90;;;;;;5012134;28;19929;-71
2022/11/07 08:03:29;;;;;;;;;;;7.80;99.90;;;;;;5017278;28;20572;-72
2022/11/07 08:05:56;;;;;;;;;;;7.80;99.90;;;;;;5020924;28;19933;-72
2022/11/07 08:08:23;;;;;;;;;;;7.80;99.90;;;;;;5014757;28;19925;-72
2022/11/07 08:10:53;;;;;;;;;;;7.80;99.90;;;;;;5015029;28;19934;-72
2022/11/07 08:13:23;;;;;;;;;;;7.80;99.90;;;;;;5022581;28;19929;-73
2022/11/07 08:15:51;;;;;;;;;;;8.00;99.90;;;;;;5017475;28;19941;-72
2022/11/07 08:18:18;;;;;;;;;;;8.20;99.90;;;;;;5019931;28;19925;-72
2022/11/07 08:20:46;;;;;;;;;;;8.20;99.90;;;;;;5013584;28;20024;-72
2022/11/07 08:23:13;;;;;;;;;;;8.20;99.90;;;;;;5023068;28;19932;-73
2022/11/07 08:25:40;;;;;;;;;;;8.20;99.90;;;;;;5024710;28;20361;-72
2022/11/07 08:28:07;;;;;;;;;;;8.20;99.90;;;;;;5016496;28;19979;-72
2022/11/07 08:30:34;;;;;;;;;;;8.20;99.90;;;;;;5015844;28;20358;-72
2022/11/07 08:33:02;;;;;;;;;;;8.20;99.90;;;;;;5019205;28;20019;-72
2022/11/07 08:35:29;;;;;;;;;;;8.30;99.90;;;;;;5019417;28;20315;-72
2022/11/07 08:37:57;;;;;;;;;;;8.30;99.90;;;;;;5016401;28;20295;-72
2022/11/07 08:40:24;;;;;;;;;;;8.30;99.90;;;;;;5025198;28;20339;-72
2022/11/07 08:42:51;;;;;;;;;;;8.30;99.90;;;;;;5013619;28;19933;-72
2022/11/07 08:45:18;;;;;;;;;;;8.30;99.90;;;;;;5007923;28;19957;-72
2022/11/07 08:47:45;;;;;;;;;;;8.30;99.90;;;;;;4993560;28;19926;-72
2022/11/07 08:50:12;;;;;;;;;;;8.30;99.90;;;;;;5013726;28;20052;-72
2022/11/07 08:52:39;;;;;;;;;;;8.30;99.90;;;;;;5016785;28;20456;-72
2022/11/07 08:55:07;;;;;;;;;;;8.40;99.90;;;;;;5015222;28;19952;-71
2022/11/07 08:57:34;;;;;;;;;;;8.40;99.90;;;;;;5020135;28;19929;-72
2022/11/07 09:00:01;;;;;;;;;;;8.40;99.90;;;;;;5017908;28;19979;-72
2022/11/07 09:02:28;;;;;;;;;;;8.40;99.90;;;;;;5004286;28;19937;-72
2022/11/07 09:04:55;;;;;;;;;;;8.40;99.90;;;;;;5018669;28;19952;-72
2022/11/07 09:07:22;;;;;;;;;;;8.40;99.90;;;;;;5023781;28;19990;-72
2022/11/07 09:09:49;;;;;;;;;;;8.40;99.90;;;;;;5015508;28;20322;-72
2022/11/07 09:12:17;;;;;;;;;;;8.40;99.90;;;;;;5015487;28;20004;-72
2022/11/07 09:14:44;;;;;;;;;;;8.40;99.90;;;;;;5015192;28;20058;-72
2022/11/07 09:17:11;;;;;;;;;;;8.40;99.90;;;;;;5010898;28;20346;-70
2022/11/07 09:19:37;;;;;;;;;;;8.50;99.90;;;;;;5017633;28;19933;-69
2022/11/07 09:22:04;;;;;;;;;;;8.50;99.90;;;;;;5017825;28;19925;-70
2022/11/07 09:24:31;;;;;;;;;;;8.50;99.90;;;;;;5015641;28;19934;-70
2022/11/07 09:26:58;;;;;;;;;;;8.60;99.90;;;;;;5015259;28;20423;-70
2022/11/07 09:29:26;;;;;;;;;;;8.50;99.90;;;;;;5018525;28;19929;-70
2022/11/07 09:31:53;;;;;;;;;;;8.50;99.90;;;;;;5014990;28;20370;-70
2022/11/07 09:34:20;;;;;;;;;;;8.60;99.90;;;;;;5011242;28;20387;-70
2022/11/07 09:36:47;;;;;;;;;;;8.60;99.90;;;;;;5015982;28;20026;-70
2022/11/07 09:39:13;;;;;;;;;;;8.60;99.90;;;;;;5017340;28;19925;-70
2022/11/07 09:41:46;;;;;;;;;;;8.60;99.90;;;;;;5016863;28;19929;-70
2022/11/07 09:44:21;;;;;;;;;;;8.60;99.90;;;;;;5016231;28;19928;-70
2022/11/07 09:46:59;;;;;;;;;;;8.60;99.90;;;;;;5011244;28;19999;-70
2022/11/07 09:49:29;;;;;;;;;;;8.60;99.90;;;;;;5015862;28;19925;-70
2022/11/07 09:51:58;;;;;;;;;;;8.70;99.90;;;;;;5008092;28;19945;-72
2022/11/07 09:54:27;;;;;;;;;;;8.70;99.90;;;;;;5015423;28;19925;-72
2022/11/07 09:56:56;;;;;;;;;;;8.70;99.90;;;;;;5013488;28;19932;-72
2022/11/07 09:59:25;;;;;;;;;;;8.70;99.90;;;;;;5010266;28;20379;-72
2022/11/07 10:01:51;;;;;;;;;;;8.70;99.90;;;;;;5012745;28;19969;-72
2022/11/07 10:04:21;;;;;;;;;;;8.70;99.90;;;;;;5010794;28;20294;-72
2022/11/07 10:06:50;;;;;;;;;;;8.70;99.90;;;;;;5011755;28;19970;-72
2022/11/07 10:09:20;;;;;;;;;;;8.70;99.90;;;;;;5015487;28;20016;-72
2022/11/07 10:11:51;;;;;;;;;;;8.80;99.90;;;;;;5012776;28;19925;-72
2022/11/07 10:14:23;;;;;;;;;;;8.80;99.90;;;;;;4999632;28;19968;-72
2022/11/07 10:16:57;;;;;;;;;;;8.80;99.90;;;;;;5008054;28;20878;-72
2022/11/07 10:19:32;;;;;;;;;;;8.80;99.90;;;;;;5012047;28;19929;-72
2022/11/07 10:22:04;;;;;;;;;;;8.80;99.90;;;;;;5011741;28;19926;-72
2022/11/07 10:24:39;;;;;;;;;;;8.80;99.90;;;;;;5010955;28;20026;-72
2022/11/07 10:27:08;;;;;;;;;;;8.80;99.90;;;;;;5014450;28;21100;-72
2022/11/07 10:29:39;;;;;;;;;;;8.90;99.90;;;;;;5012168;28;20311;-72
2022/11/07 10:32:14;;;;;;;;;;;8.90;99.90;;;;;;5027228;28;19971;-72
2022/11/07 10:34:46;;;;;;;;;;;8.90;99.90;;;;;;5010070;28;19929;-73
2022/11/07 10:37:13;;;;;;;;;;;8.90;99.90;;;;;;5013826;28;20009;-72
2022/11/07 10:39:39;;;;;;;;;;;8.90;99.90;;;;;;5018387;28;20544;-72
2022/11/07 10:42:09;;;;;;;;;;;9.00;99.90;;;;;;5012959;28;20919;-72
2022/11/07 10:44:38;;;;;;;;;;;9.00;99.90;;;;;;5015957;28;20010;-72
2022/11/07 10:47:14;;;;;;;;;;;9.00;99.90;;;;;;5014723;28;19993;-72
2022/11/07 10:49:41;;;;;;;;;;;9.00;99.90;;;;;;5015856;28;20019;-72
2022/11/07 10:52:10;;;;;;;;;;;9.00;99.90;;;;;;5012805;28;19944;-72
2022/11/07 10:54:39;;;;;;;;;;;9.00;99.90;;;;;;5017785;28;19932;-72
2022/11/07 10:57:07;;;;;;;;;;;9.00;99.90;;;;;;5013918;28;19925;-70
2022/11/07 10:59:34;;;;;;;;;;;9.10;99.90;;;;;;5017876;28;20016;-72
2022/11/07 11:04:37;;;;;;;;;;;9.10;99.90;;;;;;4958676;28;20016;-71
2022/11/07 11:07:05;;;;;;;;;;;9.10;99.90;;;;;;4976389;28;19932;-72
2022/11/07 11:09:34;;;;;;;;;;;9.20;99.90;;;;;;4980473;28;20615;-70
2022/11/07 11:12:06;;;;;;;;;;;9.20;99.90;;;;;;4986701;28;19961;-71
2022/11/07 11:14:33;;;;;;;;;;;9.20;99.90;;;;;;4970410;28;20612;-71
2022/11/07 11:17:00;;;;;;;;;;;9.20;99.90;;;;;;4972117;28;19930;-71
2022/11/07 11:19:27;;;;;;;;;;;9.30;99.90;;;;;;4977941;28;20407;-71
2022/11/07 11:21:55;;;;;;;;;;;9.30;99.90;;;;;;4974900;28;20651;-71
2022/11/07 11:24:25;;;;;;;;;;;9.30;99.90;;;;;;4972401;28;20315;-71
2022/11/07 11:26:53;;;;;;;;;;;9.30;99.90;;;;;;4974795;28;19929;-71
2022/11/07 11:29:24;;;;;;;;;;;9.30;99.90;;;;;;4975144;28;19925;-73
2022/11/07 11:31:52;;;;;;;;;;;9.30;99.90;;;;;;4974638;28;19937;-76
2022/11/07 11:34:21;;;;;;;;;;;9.30;99.90;;;;;;4989637;28;19926;-70
2022/11/07 11:36:51;;;;;;;;;;;9.40;99.90;;;;;;4977617;28;19925;-73
2022/11/07 11:39:24;;;;;;;;;;;;;;;;;;4976228;28;19932;-73
2022/11/07 11:41:54;;;;;;;;;;;9.40;99.90;;;;;;4970359;28;19937;-71
2022/11/07 11:44:23;;;;;;;;;;;9.40;99.90;;;;;;4978071;28;19926;-71
2022/11/07 11:46:53;;;;;;;;;;;9.40;99.90;;;;;;4973735;28;21725;-71
2022/11/07 11:49:22;;;;;;;;;;;9.50;99.90;;;;;;4980652;28;20376;-71
2022/11/07 11:51:50;;;;;;;;;;;9.50;99.90;;;;;;4973653;28;19969;-72
2022/11/07 11:54:17;;;;;;;;;;;9.50;99.90;;;;;;4992791;28;19929;-73
2022/11/07 11:56:50;;;;;;;;;;;9.50;99.90;;;;;;4979694;28;20311;-72
2022/11/07 11:59:34;;;;;;;;;;;9.60;99.90;;;;;;4977159;28;19988;-71
2022/11/07 12:02:06;;;;;;;;;;;9.60;99.90;;;;;;4973654;28;20671;-73
2022/11/07 12:04:38;;;;;;;;;;;9.60;99.90;;;;;;4977285;28;20343;-72
2022/11/07 12:07:11;;;;;;;;;;;9.60;99.90;;;;;;4983884;28;20031;-72
2022/11/07 12:09:40;;;;;;;;;;;9.60;99.90;;;;;;4979476;28;19933;-71
2022/11/07 12:12:15;;;;;;;;;;;9.60;99.90;;;;;;4975735;28;19930;-70
2022/11/07 12:14:51;;;;;;;;;;;9.60;99.90;;;;;;4983279;28;20435;-74
2022/11/07 12:17:21;;;;;;;;;;;9.70;99.90;;;;;;4978048;28;19948;-71
2022/11/07 12:19:52;;;;;;;;;;;9.70;99.90;;;;;;4977892;28;19932;-70
2022/11/07 12:22:24;;;;;;;;;;;9.70;99.90;;;;;;4977257;28;19980;-73
2022/11/07 12:24:55;;;;;;;;;;;9.70;99.90;;;;;;4979035;28;19937;-72
2022/11/07 12:27:24;;;;;;;;;;;9.80;99.90;;;;;;4975512;28;20707;-70
2022/11/07 12:30:05;;;;;;;;;;;9.80;99.90;;;;;;4980709;28;19926;-76
2022/11/07 12:32:36;;;;;;;;;;;9.80;99.90;;;;;;4976104;28;19961;-76
2022/11/07 12:35:09;;;;;;;;;;;9.90;99.90;;;;;;4977444;28;19934;-78
2022/11/07 12:37:45;;;;;;;;;;;9.90;99.90;;;;;;4973190;28;19929;-72
2022/11/07 12:40:16;;;;;;;;;;;10.00;99.90;;;;;;4978858;28;19951;-71
2022/11/07 12:42:51;;;;;;;;;;;10.00;99.90;;;;;;4979697;28;19937;-71
2022/11/07 12:45:22;;;;;;;;;;;10.00;99.90;;;;;;4973781;28;19952;-71
2022/11/07 12:47:57;;;;;;;;;;;10.10;99.90;;;;;;4976259;28;19955;-74
2022/11/07 12:50:31;;;;;;;;;;;10.10;99.90;;;;;;4976982;28;21962;-71
2022/11/07 12:53:02;;;;;;;;;;;10.10;99.90;;;;;;4980801;28;20001;-71
2022/11/07 12:55:31;;;;;;;;;;;10.20;99.90;;;;;;4973074;28;19969;-72
2022/11/07 12:57:58;;;;;;;;;;;;;;;;;;4978048;28;19941;-71
2022/11/07 13:00:27;;;;;;;;;;;10.20;99.90;;;;;;4975484;28;20712;-71
2022/11/07 13:03:01;;;;;;;;;;;10.20;99.90;;;;;;4982646;28;19926;-71
2022/11/07 13:05:37;;;;;;;;;;;10.20;99.90;;;;;;4977331;28;19997;-72
2022/11/07 13:08:07;;;;;;;;;;;10.30;99.90;;;;;;4980976;28;19959;-71
2022/11/07 13:10:34;;;;;;;;;;;;;;;;;;4975517;28;20012;-71
2022/11/07 13:13:03;;;;;;;;;;;10.30;99.90;;;;;;4975146;28;19926;-72
2022/11/07 13:15:31;;;;;;;;;;;10.40;99.90;;;;;;4975528;28;20514;-72
2022/11/07 13:17:58;;;;;;;;;;;10.40;99.90;;;;;;4979903;28;19940;-71
2022/11/07 13:20:27;;;;;;;;;;;10.40;99.90;;;;;;4975744;28;19933;-72
2022/11/07 13:22:54;;;;;;;;;;;10.50;99.90;;;;;;4978261;28;19934;-71
2022/11/07 13:25:23;;;;;;;;;;;10.50;99.90;;;;;;4975100;28;20449;-72
2022/11/07 13:28:01;;;;;;;;;;;10.60;99.90;;;;;;4978472;28;19999;-71
2022/11/07 13:30:35;;;;;;;;;;;10.60;99.90;;;;;;4975590;28;19925;-71
2022/11/07 13:33:02;;;;;;;;;;;10.60;99.90;;;;;;4977012;28;19937;-71
2022/11/07 13:35:30;;;;;;;;;;;10.60;99.90;;;;;;4994337;28;20071;-71
2022/11/07 13:37:58;;;;;;;;;;;10.60;99.90;;;;;;4975777;28;19959;-71
2022/11/07 13:40:25;;;;;;;;;;;10.60;99.90;;;;;;4990330;28;19938;-73
2022/11/07 13:42:54;;;;;;;;;;;10.70;99.90;;;;;;4974438;28;20557;-71
2022/11/07 13:45:25;;;;;;;;;;;10.70;99.90;;;;;;4978407;28;19930;-70
2022/11/07 13:47:54;;;;;;;;;;;10.70;99.90;;;;;;4976241;28;19932;-71
2022/11/07 13:50:23;;;;;;;;;;;10.80;99.90;;;;;;4969868;28;20380;-70
2022/11/07 13:52:54;;;;;;;;;;;10.70;99.90;;;;;;4968639;28;19926;-71
2022/11/07 13:55:23;;;;;;;;;;;10.80;99.90;;;;;;4974546;28;19930;-71
2022/11/07 13:57:52;;;;;;;;;;;10.70;99.90;;;;;;4975324;28;20001;-71
2022/11/07 14:00:19;;;;;;;;;;;10.80;99.90;;;;;;4993019;28;20030;-71
2022/11/07 14:02:51;;;;;;;;;;;10.80;99.90;;;;;;4976554;28;19926;-71
2022/11/07 14:05:21;;;;;;;;;;;10.80;99.90;;;;;;4981962;28;20028;-71
2022/11/07 14:07:48;;;;;;;;;;;10.80;99.90;;;;;;4974998;28;20426;-71
2022/11/07 14:10:19;;;;;;;;;;;10.80;99.90;;;;;;4976718;28;19925;-71
2022/11/07 14:12:46;;;;;;;;;;;10.90;99.90;;;;;;4980216;28;19977;-71
2022/11/07 14:15:14;;;;;;;;;;;10.90;99.90;;;;;;4976429;28;20012;-70
2022/11/07 14:17:41;;;;;;;;;;;10.90;99.90;;;;;;4978486;28;19934;-71
2022/11/07 14:20:14;;;;;;;;;;;10.90;99.90;;;;;;4985989;28;20031;-71
2022/11/07 14:22:52;;;;;;;;;;;10.90;99.90;;;;;;4976524;28;20016;-70
2022/11/07 14:25:22;;;;;;;;;;;10.90;99.90;;;;;;4974674;28;20064;-70
2022/11/07 14:27:49;;;;;;;;;;;11.00;99.90;;;;;;4975672;28;19973;-73
2022/11/07 14:30:16;;;;;;;;;;;11.00;99.90;;;;;;4972274;28;19926;-70
2022/11/07 14:32:49;;;;;;;;;;;11.00;99.90;;;;;;4987553;28;20020;-71
2022/11/07 14:35:18;;;;;;;;;;;10.90;99.90;;;;;;4978091;28;20589;-70
2022/11/07 14:37:45;;;;;;;;;;;11.00;99.90;;;;;;4978257;28;19927;-71
2022/11/07 14:40:13;;;;;;;;;;;11.00;99.90;;;;;;4994918;28;19926;-71
2022/11/07 14:42:42;;;;;;;;;;;11.00;99.90;;;;;;4974186;28;19937;-71
2022/11/07 14:45:11;;;;;;;;;;;11.00;99.90;;;;;;4972124;28;20079;-71
2022/11/07 14:47:39;;;;;;;;;;;11.00;99.90;;;;;;4980918;28;20320;-71
2022/11/07 14:50:08;;;;;;;;;;;11.00;99.90;;;;;;4969560;28;20215;-71
2022/11/07 14:52:36;;;;;;;;;;;11.00;99.90;;;;;;4975720;28;20008;-71
2022/11/07 14:55:05;;;;;;;;;;;11.00;99.90;;;;;;4990304;28;20423;-71